Time;durP1;ratioP1;P1;durP2;ratioP2;P2;SDS_P1;SDS_P2;PMS_P1;PMS_P2;Temp;Humidity;BMP_temperature;BMP_pressure;BME280_temperature;BME280_humidity;BME280_pressure;Samples;Min_cycle;Max_cycle;Signal;HPM_P1;HPM_P2
2022/01/30 00:01:04;;;;;;;;;;;6.60;99.90;;;;;;6119639;23;20201;-92
2022/01/30 00:03:39;;;;;;;;;;;6.50;99.90;;;;;;6117763;23;19908;-92
2022/01/30 00:06:12;;;;;;;;;;;6.50;99.90;;;;;;6119803;23;19913;-92
2022/01/30 00:08:39;;;;;;;;;;;6.50;99.90;;;;;;6120638;23;19920;-90
2022/01/30 00:11:17;;;;;;;;;;;6.40;99.90;;;;;;6112701;23;19924;-91
2022/01/30 00:13:44;;;;;;;;;;;6.40;99.90;;;;;;6159693;23;19996;-91
2022/01/30 00:16:10;;;;;;;;;;;6.40;99.90;;;;;;6143085;23;20257;-92
2022/01/30 00:19:03;;;;;;;;;;;6.40;99.90;;;;;;6147576;23;20300;-91
2022/01/30 00:24:03;;;;;;;;;;;6.30;99.90;;;;;;6130718;23;19935;-92
2022/01/30 00:26:32;;;;;;;;;;;6.40;99.90;;;;;;6120197;23;19944;-91
2022/01/30 00:29:00;;;;;;;;;;;6.40;99.90;;;;;;6109142;23;20301;-91
2022/01/30 00:31:30;;;;;;;;;;;6.40;99.90;;;;;;6123007;23;19940;-93
2022/01/30 00:33:59;;;;;;;;;;;6.50;99.90;;;;;;6159964;23;19912;-92
2022/01/30 00:36:39;;;;;;;;;;;6.50;99.90;;;;;;6138779;23;19912;-93
2022/01/30 00:39:18;;;;;;;;;;;6.50;99.90;;;;;;6138624;23;19936;-93
2022/01/30 00:41:43;;;;;;;;;;;6.50;99.90;;;;;;6152291;23;19972;-92
2022/01/30 00:44:10;;;;;;;;;;;6.40;99.90;;;;;;6111765;23;19916;-93
2022/01/30 00:46:38;;;;;;;;;;;6.30;99.90;;;;;;6123534;23;20820;-92
2022/01/30 00:52:00;;;;;;;;;;;6.20;99.90;;;;;;6122384;23;20219;-92
2022/01/30 00:54:26;;;;;;;;;;;6.10;99.90;;;;;;6117409;23;19939;-91
2022/01/30 00:56:54;;;;;;;;;;;6.10;99.90;;;;;;6130900;23;20312;-92
2022/01/30 00:59:25;;;;;;;;;;;6.00;99.90;;;;;;6156574;23;19913;-90
2022/01/30 01:01:51;;;;;;;;;;;6.10;99.90;;;;;;6114937;23;20237;-90
2022/01/30 01:04:17;;;;;;;;;;;6.10;99.90;;;;;;6112102;23;19913;-90
2022/01/30 01:06:48;;;;;;;;;;;6.10;99.90;;;;;;6135660;23;20579;-92
2022/01/30 01:09:15;;;;;;;;;;;6.10;99.90;;;;;;6125921;23;19928;-91
2022/01/30 01:25:29;;;;;;;;;;;6.30;99.90;;;;;;6116260;23;19997;-91
2022/01/30 01:27:57;;;;;;;;;;;6.30;99.90;;;;;;6119873;23;19916;-91
2022/01/30 01:30:23;;;;;;;;;;;6.30;99.90;;;;;;6136599;23;19929;-91
2022/01/30 01:32:51;;;;;;;;;;;6.40;99.90;;;;;;6116719;23;20753;-90
2022/01/30 01:35:22;;;;;;;;;;;6.50;99.90;;;;;;6134661;23;19912;-92
2022/01/30 01:37:54;;;;;;;;;;;6.50;99.90;;;;;;6121770;23;19913;-93
2022/01/30 01:40:21;;;;;;;;;;;6.50;99.90;;;;;;6106516;23;20309;-92
2022/01/30 01:42:47;;;;;;;;;;;6.50;99.90;;;;;;6130826;23;19913;-93
2022/01/30 01:45:24;;;;;;;;;;;6.50;99.90;;;;;;6076349;23;20002;-92
2022/01/30 01:47:51;;;;;;;;;;;6.50;99.90;;;;;;6112709;23;20328;-93
2022/01/30 01:50:40;;;;;;;;;;;6.50;99.90;;;;;;6147259;23;19928;-92
2022/01/30 01:53:43;;;;;;;;;;;6.50;99.90;;;;;;6099976;23;20229;-93
2022/01/30 01:56:15;;;;;;;;;;;6.50;99.90;;;;;;6048147;23;19913;-92
2022/01/30 01:58:45;;;;;;;;;;;6.60;99.90;;;;;;6035759;23;19965;-91
2022/01/30 02:01:32;;;;;;;;;;;6.60;99.90;;;;;;6008306;23;19964;-92
2022/01/30 02:08:06;;;;;;;;;;;6.60;99.90;;;;;;6005401;23;20217;-92
2022/01/30 02:09:51;;;;;;;;;;;6.70;99.90;;;;;;6047796;23;19932;-92
2022/01/30 02:12:32;;;;;;;;;;;6.70;99.90;;;;;;6057579;23;19989;-89
2022/01/30 02:15:29;;;;;;;;;;;6.70;99.90;;;;;;6046171;23;19914;-90
2022/01/30 02:26:10;;;;;;;;;;;6.80;99.90;;;;;;6032715;23;19993;-92
2022/01/30 02:28:40;;;;;;;;;;;6.80;99.90;;;;;;6035771;23;19929;-91
2022/01/30 02:31:14;;;;;;;;;;;6.80;99.90;;;;;;6045722;23;19918;-92
2022/01/30 02:33:43;;;;;;;;;;;6.70;99.90;;;;;;6112819;23;20320;-92
2022/01/30 02:36:08;;;;;;;;;;;6.70;99.90;;;;;;6095304;23;20177;-92
2022/01/30 02:38:37;;;;;;;;;;;6.70;99.90;;;;;;6122568;23;19913;-93
2022/01/30 02:41:06;;;;;;;;;;;6.70;99.90;;;;;;6092788;23;19920;-90
2022/01/30 02:43:41;;;;;;;;;;;6.60;99.90;;;;;;6113036;23;19919;-92
2022/01/30 02:46:34;;;;;;;;;;;6.60;99.90;;;;;;6088757;23;19916;-93
2022/01/30 02:52:04;;;;;;;;;;;6.60;99.90;;;;;;6127430;23;19913;-94
2022/01/30 02:54:53;;;;;;;;;;;6.60;99.90;;;;;;6096794;23;19912;-92
2022/01/30 02:57:26;;;;;;;;;;;6.50;99.90;;;;;;6108329;23;19912;-90
2022/01/30 02:59:55;;;;;;;;;;;6.50;99.90;;;;;;6088698;23;19940;-91
2022/01/30 03:02:21;;;;;;;;;;;6.50;99.90;;;;;;6104285;23;20122;-92
2022/01/30 03:05:17;;;;;;;;;;;;;;;;;;;;;
2022/01/30 03:07:52;;;;;;;;;;;6.50;99.90;;;;;;6138174;23;19924;-92
2022/01/30 03:10:31;;;;;;;;;;;;;;;;;;;;;
2022/01/30 03:13:33;;;;;;;;;;;6.50;99.90;;;;;;6125522;23;19920;-93
2022/01/30 03:16:22;;;;;;;;;;;6.50;99.90;;;;;;6085262;23;19919;-93
2022/01/30 03:19:13;;;;;;;;;;;6.50;99.90;;;;;;6084367;23;19917;-91
2022/01/30 03:21:55;;;;;;;;;;;6.40;99.90;;;;;;6103121;23;20071;-93
2022/01/30 03:24:35;;;;;;;;;;;6.30;99.90;;;;;;6125475;23;19912;-92
2022/01/30 03:27:00;;;;;;;;;;;6.30;99.90;;;;;;6125522;23;20371;-91
2022/01/30 03:29:26;;;;;;;;;;;6.30;99.90;;;;;;6138882;23;19923;-91
2022/01/30 03:32:21;;;;;;;;;;;6.20;99.90;;;;;;6134303;23;19913;-93
2022/01/30 03:34:46;;;;;;;;;;;6.20;99.90;;;;;;6128083;23;19913;-94
2022/01/30 03:37:16;;;;;;;;;;;6.20;99.90;;;;;;6113085;23;19940;-92
2022/01/30 03:39:44;;;;;;;;;;;6.10;99.90;;;;;;6134075;23;19967;-92
2022/01/30 03:42:10;;;;;;;;;;;6.10;99.90;;;;;;6145780;23;20107;-91
2022/01/30 03:44:36;;;;;;;;;;;6.00;99.90;;;;;;6121421;23;19928;-92
2022/01/30 03:47:20;;;;;;;;;;;;;;;;;;;;;
2022/01/30 03:49:47;;;;;;;;;;;6.00;99.90;;;;;;6136369;23;20531;-92
2022/01/30 03:52:16;;;;;;;;;;;6.00;99.90;;;;;;6085460;23;19909;-91
2022/01/30 03:54:50;;;;;;;;;;;6.00;99.90;;;;;;6132015;23;19909;-91
2022/01/30 03:57:17;;;;;;;;;;;6.00;99.90;;;;;;6136889;23;19909;-92
2022/01/30 03:59:46;;;;;;;;;;;6.10;99.90;;;;;;6084632;23;19909;-92
2022/01/30 04:02:12;;;;;;;;;;;6.10;99.90;;;;;;6080274;23;19913;-92
2022/01/30 04:04:37;;;;;;;;;;;6.10;99.90;;;;;;6102883;23;19980;-91
2022/01/30 04:07:03;;;;;;;;;;;6.10;99.90;;;;;;6103123;23;19924;-91
2022/01/30 04:09:29;;;;;;;;;;;6.00;99.90;;;;;;6103856;23;19986;-90
2022/01/30 04:11:57;;;;;;;;;;;5.90;99.90;;;;;;6090215;23;19919;-91
2022/01/30 04:14:22;;;;;;;;;;;5.80;99.90;;;;;;6099677;23;19940;-91
2022/01/30 04:16:48;;;;;;;;;;;5.70;99.90;;;;;;6126982;23;19912;-91
2022/01/30 04:19:14;;;;;;;;;;;5.70;99.90;;;;;;6115044;23;20336;-90
2022/01/30 04:21:42;;;;;;;;;;;5.80;99.90;;;;;;6126499;23;19942;-91
2022/01/30 04:24:07;;;;;;;;;;;5.80;99.90;;;;;;6114645;23;19916;-90
2022/01/30 04:26:33;;;;;;;;;;;5.90;99.90;;;;;;6096319;23;19916;-91
2022/01/30 04:29:01;;;;;;;;;;;5.90;99.90;;;;;;6114558;23;20329;-90
2022/01/30 04:31:32;;;;;;;;;;;5.90;99.90;;;;;;6134063;23;19913;-90
2022/01/30 04:34:06;;;;;;;;;;;6.00;99.90;;;;;;6122776;23;19988;-92
2022/01/30 04:36:39;;;;;;;;;;;6.00;99.90;;;;;;6139493;23;19913;-91
2022/01/30 04:39:28;;;;;;;;;;;6.00;99.90;;;;;;6109610;23;19913;-91
2022/01/30 04:53:09;;;;;;;;;;;5.70;99.90;;;;;;6109810;23;19975;-90
2022/01/30 05:01:52;;;;;;;;;;;5.60;99.90;;;;;;6087382;23;19913;-93
2022/01/30 05:10:04;;;;;;;;;;;5.50;99.90;;;;;;6114586;23;19923;-92
2022/01/30 05:13:09;;;;;;;;;;;;;;;;;;;;;
2022/01/30 05:15:33;;;;;;;;;;;5.60;99.90;;;;;;5978030;23;19918;-92
2022/01/30 05:20:59;;;;;;;;;;;5.60;99.90;;;;;;5919345;23;19938;-92
2022/01/30 05:23:30;;;;;;;;;;;5.60;99.90;;;;;;6091116;23;19913;-92
2022/01/30 05:25:56;;;;;;;;;;;5.70;99.90;;;;;;6052391;23;20490;-92
2022/01/30 05:28:35;;;;;;;;;;;;;;;;;;;;;
2022/01/30 05:31:03;;;;;;;;;;;5.70;99.90;;;;;;6059493;23;20000;-91
2022/01/30 05:36:37;;;;;;;;;;;5.70;99.90;;;;;;6074062;23;20357;-91
2022/01/30 05:39:14;;;;;;;;;;;5.70;99.90;;;;;;6088973;23;20520;-91
2022/01/30 05:41:39;;;;;;;;;;;5.70;99.90;;;;;;6092036;23;20504;-91
2022/01/30 05:44:19;;;;;;;;;;;5.80;99.90;;;;;;6133463;23;19973;-92
2022/01/30 05:46:55;;;;;;;;;;;5.80;99.90;;;;;;6084257;23;19988;-91
2022/01/30 05:52:47;;;;;;;;;;;5.80;99.90;;;;;;6055769;23;19920;-91
2022/01/30 05:55:16;;;;;;;;;;;5.80;99.90;;;;;;6144473;23;19919;-90
2022/01/30 05:57:42;;;;;;;;;;;5.80;99.90;;;;;;6095444;23;19920;-91
2022/01/30 06:00:22;;;;;;;;;;;5.80;99.90;;;;;;6103699;23;24731;-92
2022/01/30 06:02:47;;;;;;;;;;;5.80;99.90;;;;;;6096963;23;20284;-92
2022/01/30 06:05:15;;;;;;;;;;;5.80;99.90;;;;;;6121524;23;19913;-91
2022/01/30 06:10:58;;;;;;;;;;;5.90;99.90;;;;;;6070388;23;20365;-93
2022/01/30 06:13:44;;;;;;;;;;;5.90;99.90;;;;;;6036686;23;20421;-91
2022/01/30 06:16:36;;;;;;;;;;;5.90;99.90;;;;;;6066798;23;20474;-93
2022/01/30 06:19:13;;;;;;;;;;;5.80;99.90;;;;;;6142612;23;20241;-92
2022/01/30 06:21:38;;;;;;;;;;;5.90;99.90;;;;;;6089976;23;19965;-91
2022/01/30 06:24:07;;;;;;;;;;;6.00;99.90;;;;;;6130920;23;20023;-91
2022/01/30 06:26:32;;;;;;;;;;;5.90;99.90;;;;;;6109113;23;19909;-92
2022/01/30 06:28:58;;;;;;;;;;;6.00;99.90;;;;;;6118901;23;20015;-91
2022/01/30 06:31:27;;;;;;;;;;;5.90;99.90;;;;;;6144420;23;19920;-93
2022/01/30 06:33:52;;;;;;;;;;;5.90;99.90;;;;;;6116963;23;20210;-91
2022/01/30 06:36:18;;;;;;;;;;;5.90;99.90;;;;;;6117308;23;19972;-91
2022/01/30 06:38:44;;;;;;;;;;;5.90;99.90;;;;;;6109447;23;19943;-91
2022/01/30 06:41:09;;;;;;;;;;;5.80;99.90;;;;;;6143570;23;19920;-94
2022/01/30 06:43:35;;;;;;;;;;;5.80;99.90;;;;;;6135617;23;19913;-93
2022/01/30 06:46:01;;;;;;;;;;;5.80;99.90;;;;;;6096000;23;19913;-91
2022/01/30 06:48:26;;;;;;;;;;;5.80;99.90;;;;;;6117979;23;19948;-92
2022/01/30 06:50:55;;;;;;;;;;;5.80;99.90;;;;;;6131462;23;19936;-93
2022/01/30 06:53:22;;;;;;;;;;;5.80;99.90;;;;;;6135248;23;19912;-93
2022/01/30 06:55:58;;;;;;;;;;;5.90;99.90;;;;;;6093681;23;19919;-90
2022/01/30 06:58:24;;;;;;;;;;;5.90;99.90;;;;;;6136416;23;19936;-92
2022/01/30 07:00:49;;;;;;;;;;;6.00;99.90;;;;;;6111653;23;20149;-92
2022/01/30 07:07:13;;;;;;;;;;;;;;;;;;;;;
2022/01/30 07:09:51;;;;;;;;;;;6.10;99.90;;;;;;5964782;23;21369;-92
2022/01/30 07:36:46;;;;;;;;;;;6.40;99.90;;;;;;5386566;24;4960585;-93
2022/01/30 07:50:12;;;;;;;;;;;;;;;;;;;;;
2022/01/30 07:56:17;;;;;;;;;;;6.50;99.90;;;;;;6133447;23;20456;-91
2022/01/30 10:31:39;;;;;;;;;;;6.70;99.90;;;;;;6094318;23;19932;-92
2022/01/30 10:37:43;;;;;;;;;;;;;;;;;;;;;
2022/01/30 10:40:29;;;;;;;;;;;6.60;99.90;;;;;;6113510;23;19946;-88
2022/01/30 10:46:45;;;;;;;;;;;;;;;;;;;;;
2022/01/30 10:49:18;;;;;;;;;;;6.70;99.90;;;;;;6014324;23;19918;-89
2022/01/30 10:54:49;;;;;;;;;;;6.60;99.90;;;;;;6062064;23;20341;-90
2022/01/30 10:57:15;;;;;;;;;;;6.60;99.90;;;;;;6081409;23;19910;-88
2022/01/30 10:59:56;;;;;;;;;;;6.70;99.90;;;;;;6113639;23;19912;-86
2022/01/30 11:02:22;;;;;;;;;;;6.70;99.90;;;;;;6140402;23;19913;-89
2022/01/30 11:05:02;;;;;;;;;;;6.80;99.90;;;;;;6153610;23;19913;-88
2022/01/30 11:07:30;;;;;;;;;;;6.70;99.90;;;;;;6140825;23;19913;-88
2022/01/30 11:10:04;;;;;;;;;;;6.80;99.90;;;;;;6131721;23;19935;-89
2022/01/30 11:12:34;;;;;;;;;;;6.80;99.90;;;;;;6128212;23;19908;-89
2022/01/30 11:15:23;;;;;;;;;;;6.90;99.90;;;;;;6141392;23;20475;-88
2022/01/30 11:17:49;;;;;;;;;;;6.80;99.90;;;;;;6166434;23;20064;-87
2022/01/30 11:20:22;;;;;;;;;;;6.80;99.90;;;;;;6149961;23;19913;-88
2022/01/30 11:22:51;;;;;;;;;;;6.80;99.90;;;;;;6129304;23;19948;-88
2022/01/30 11:28:19;;;;;;;;;;;6.90;99.90;;;;;;6126931;23;19990;-88
2022/01/30 11:30:46;;;;;;;;;;;6.90;99.90;;;;;;6139042;23;19909;-89
2022/01/30 11:33:19;;;;;;;;;;;6.90;99.90;;;;;;6126959;23;19912;-91
2022/01/30 11:35:45;;;;;;;;;;;6.90;99.90;;;;;;6132983;23;19912;-89
2022/01/30 11:38:11;;;;;;;;;;;6.90;99.90;;;;;;6157393;23;19912;-88
2022/01/30 11:40:37;;;;;;;;;;;6.90;99.90;;;;;;6131967;23;20471;-86
2022/01/30 11:43:09;;;;;;;;;;;6.90;99.90;;;;;;6161453;23;20347;-88
2022/01/30 11:45:34;;;;;;;;;;;6.90;99.90;;;;;;6127788;23;20285;-87
2022/01/30 11:48:23;;;;;;;;;;;7.00;99.90;;;;;;6132197;23;19920;-88
2022/01/30 11:51:01;;;;;;;;;;;7.00;99.90;;;;;;6154028;23;19908;-86
2022/01/30 11:53:27;;;;;;;;;;;7.00;99.90;;;;;;6142204;23;19948;-84
2022/01/30 11:56:00;;;;;;;;;;;7.00;99.90;;;;;;6165348;23;19913;-85
2022/01/30 11:58:33;;;;;;;;;;;7.00;99.90;;;;;;6142827;23;19919;-85
2022/01/30 12:01:05;;;;;;;;;;;7.00;99.90;;;;;;6140954;23;20283;-86
2022/01/30 12:03:36;;;;;;;;;;;7.00;99.90;;;;;;6140025;23;19912;-86
2022/01/30 12:06:22;;;;;;;;;;;7.00;99.90;;;;;;6111205;23;19995;-86
2022/01/30 12:08:48;;;;;;;;;;;7.10;99.90;;;;;;6132254;23;19913;-86
2022/01/30 12:11:32;;;;;;;;;;;7.20;99.90;;;;;;6130218;23;19913;-86
2022/01/30 12:14:01;;;;;;;;;;;7.10;99.90;;;;;;6165367;23;19915;-86
2022/01/30 12:17:02;;;;;;;;;;;7.20;99.90;;;;;;6146423;23;19979;-86
2022/01/30 12:19:46;;;;;;;;;;;7.10;99.90;;;;;;6112937;23;19916;-87
2022/01/30 12:22:23;;;;;;;;;;;7.20;99.90;;;;;;6141116;23;20260;-85
2022/01/30 12:25:07;;;;;;;;;;;7.30;99.90;;;;;;6143253;23;20352;-85
2022/01/30 12:27:51;;;;;;;;;;;7.20;99.90;;;;;;6113831;23;19915;-85
2022/01/30 12:30:47;;;;;;;;;;;7.30;99.90;;;;;;6139882;23;19913;-86
2022/01/30 12:33:32;;;;;;;;;;;7.20;99.90;;;;;;6139087;23;20323;-86
2022/01/30 12:36:02;;;;;;;;;;;7.20;99.90;;;;;;6137887;23;19962;-86
2022/01/30 12:38:34;;;;;;;;;;;7.10;99.90;;;;;;6084126;23;19932;-85
2022/01/30 12:41:14;;;;;;;;;;;7.20;99.90;;;;;;6130665;23;20321;-85
2022/01/30 12:43:47;;;;;;;;;;;7.20;99.90;;;;;;6141622;23;19987;-85
2022/01/30 12:46:13;;;;;;;;;;;7.20;99.90;;;;;;6107844;23;19920;-86
2022/01/30 12:48:38;;;;;;;;;;;7.10;99.90;;;;;;6140005;23;19921;-85
2022/01/30 12:51:12;;;;;;;;;;;7.20;99.90;;;;;;6100051;23;19917;-86
2022/01/30 12:53:38;;;;;;;;;;;7.40;99.90;;;;;;6106743;23;20448;-85
2022/01/30 12:56:05;;;;;;;;;;;7.50;99.90;;;;;;6165452;23;19940;-86
2022/01/30 12:58:33;;;;;;;;;;;7.50;99.90;;;;;;6128065;23;19920;-85
2022/01/30 13:01:10;;;;;;;;;;;7.50;99.90;;;;;;6152912;23;19939;-86
2022/01/30 13:03:35;;;;;;;;;;;7.50;99.90;;;;;;6139424;23;19988;-85
2022/01/30 13:06:01;;;;;;;;;;;7.50;99.90;;;;;;6163371;23;19987;-84
2022/01/30 13:09:02;;;;;;;;;;;7.40;99.90;;;;;;6152212;23;19924;-84
2022/01/30 13:11:27;;;;;;;;;;;7.30;99.90;;;;;;6027311;23;19921;-87
2022/01/30 13:13:57;;;;;;;;;;;7.30;99.90;;;;;;6117762;23;19912;-86
2022/01/30 13:16:25;;;;;;;;;;;7.30;99.90;;;;;;6135014;23;20436;-84
2022/01/30 13:19:31;;;;;;;;;;;7.30;99.90;;;;;;6054145;23;19909;-89
2022/01/30 13:22:00;;;;;;;;;;;7.40;99.90;;;;;;5963289;23;19926;-89
2022/01/30 13:24:26;;;;;;;;;;;7.40;99.90;;;;;;5957358;23;19993;-85
2022/01/30 13:27:05;;;;;;;;;;;7.40;99.90;;;;;;6025598;23;19913;-86
2022/01/30 13:29:34;;;;;;;;;;;7.30;99.90;;;;;;6131153;23;19916;-87
2022/01/30 13:32:19;;;;;;;;;;;7.20;99.90;;;;;;6147555;23;19909;-87
2022/01/30 13:34:46;;;;;;;;;;;7.20;99.90;;;;;;6157440;23;20463;-87
2022/01/30 13:37:34;;;;;;;;;;;7.20;99.90;;;;;;6113288;23;19980;-88
2022/01/30 13:41:04;;;;;;;;;;;7.30;99.90;;;;;;6083504;23;20002;-87
2022/01/30 13:43:25;;;;;;;;;;;7.40;99.90;;;;;;5947534;23;19922;-86
2022/01/30 13:48:50;;;;;;;;;;;7.40;99.90;;;;;;6021508;23;20295;-85
2022/01/30 13:51:32;;;;;;;;;;;7.40;99.90;;;;;;5994285;23;20244;-85
2022/01/30 14:03:39;;;;;;;;;;;7.40;99.90;;;;;;5936496;24;19972;-88
2022/01/30 14:09:53;;;;;;;;;;;7.30;99.90;;;;;;6105371;23;19987;-87
2022/01/30 14:21:55;;;;;;;;;;;;;;;;;;;;;
2022/01/30 14:24:25;;;;;;;;;;;7.20;99.90;;;;;;5991018;23;20772;-86
2022/01/30 14:36:39;;;;;;;;;;;;;;;;;;;;;
2022/01/30 14:58:10;;;;;;;;;;;;;;;;;;;;;
2022/01/30 15:00:59;;;;;;;;;;;6.80;99.90;;;;;;5399392;24;5001152;-87
2022/01/30 15:16:49;;;;;;;;;;;6.70;99.90;;;;;;5584188;24;4901782;-87
2022/01/30 15:38:45;;;;;;;;;;;6.50;99.90;;;;;;5156216;24;4975294;-87
2022/01/30 15:41:11;;;;;;;;;;;6.50;99.90;;;;;;5763960;24;20299;-88
2022/01/30 15:43:40;;;;;;;;;;;6.50;99.90;;;;;;5807174;24;19923;-87
2022/01/30 15:49:11;;;;;;;;;;;6.50;99.90;;;;;;5954802;23;19925;-86
2022/01/30 15:51:40;;;;;;;;;;;6.40;99.90;;;;;;6028954;23;19910;-87
2022/01/30 15:54:11;;;;;;;;;;;6.40;99.90;;;;;;6052211;23;19920;-88
2022/01/30 15:56:45;;;;;;;;;;;6.40;99.90;;;;;;6052722;23;19916;-88
2022/01/30 15:59:24;;;;;;;;;;;;;;;;;;;;;
2022/01/30 16:01:54;;;;;;;;;;;6.40;99.90;;;;;;6051913;23;21324;-87
2022/01/30 16:04:33;;;;;;;;;;;;;;;;;;;;;
2022/01/30 16:16:21;;;;;;;;;;;6.30;99.90;;;;;;6021771;23;20242;-86
2022/01/30 16:22:06;;;;;;;;;;;6.30;99.90;;;;;;5950406;23;20418;-86
2022/01/30 16:24:41;;;;;;;;;;;6.20;99.90;;;;;;5966043;23;19922;-89
2022/01/30 16:27:09;;;;;;;;;;;6.20;99.90;;;;;;6033448;23;20350;-88
2022/01/30 16:29:34;;;;;;;;;;;6.20;99.90;;;;;;5992183;23;19920;-89
2022/01/30 16:32:32;;;;;;;;;;;6.20;99.90;;;;;;6004396;23;19913;-88
2022/01/30 16:35:32;;;;;;;;;;;6.20;99.90;;;;;;5966329;23;20298;-88
2022/01/30 16:38:04;;;;;;;;;;;6.10;99.90;;;;;;6024276;23;19914;-87
2022/01/30 16:40:34;;;;;;;;;;;6.10;99.90;;;;;;6001111;23;20336;-88
2022/01/30 16:43:10;;;;;;;;;;;6.20;99.90;;;;;;5990011;23;20368;-89
2022/01/30 16:45:45;;;;;;;;;;;6.10;99.90;;;;;;5997213;23;20338;-91
2022/01/30 16:48:46;;;;;;;;;;;6.10;99.90;;;;;;6009383;23;19923;-89
2022/01/30 16:51:12;;;;;;;;;;;6.10;99.90;;;;;;6011227;23;19925;-87
2022/01/30 16:53:48;;;;;;;;;;;6.10;99.90;;;;;;5973251;23;20323;-89
2022/01/30 16:56:41;;;;;;;;;;;;;;;;;;;;;
2022/01/30 16:59:07;;;;;;;;;;;6.10;99.90;;;;;;6022548;23;21576;-86
2022/01/30 17:01:33;;;;;;;;;;;6.10;99.90;;;;;;6024037;23;19993;-88
2022/01/30 17:03:58;;;;;;;;;;;6.10;99.90;;;;;;6009699;23;19914;-88
2022/01/30 17:06:33;;;;;;;;;;;6.00;99.90;;;;;;6020355;23;19970;-87
2022/01/30 17:09:23;;;;;;;;;;;6.00;99.90;;;;;;5997112;23;19929;-88
2022/01/30 17:11:50;;;;;;;;;;;6.00;99.90;;;;;;6059345;23;20309;-88
2022/01/30 17:14:25;;;;;;;;;;;6.00;99.90;;;;;;6099360;23;19920;-86
2022/01/30 17:16:55;;;;;;;;;;;6.00;99.90;;;;;;6091583;23;20173;-87
2022/01/30 17:19:30;;;;;;;;;;;6.00;99.90;;;;;;6092276;23;20338;-88
2022/01/30 17:22:20;;;;;;;;;;;6.00;99.90;;;;;;6074553;23;19909;-89
2022/01/30 17:31:03;;;;;;;;;;;5.90;99.90;;;;;;6111042;23;19948;-90
2022/01/30 17:34:01;;;;;;;;;;;5.90;99.90;;;;;;6040517;23;19919;-88
2022/01/30 17:36:39;;;;;;;;;;;5.90;99.90;;;;;;6043679;23;20041;-90
2022/01/30 17:41:41;;;;;;;;;;;5.90;99.90;;;;;;6151384;22;19929;-87
2022/01/30 17:44:15;;;;;;;;;;;5.90;99.90;;;;;;6117810;23;19923;-88
2022/01/30 17:46:41;;;;;;;;;;;5.90;99.90;;;;;;6113861;23;20356;-86
2022/01/30 17:49:09;;;;;;;;;;;5.80;99.90;;;;;;6143092;23;19920;-87
2022/01/30 17:51:34;;;;;;;;;;;5.90;99.90;;;;;;6128907;23;20356;-86
2022/01/30 17:54:00;;;;;;;;;;;5.90;99.90;;;;;;6118330;23;19912;-86
2022/01/30 17:56:26;;;;;;;;;;;5.90;99.90;;;;;;6153133;23;19931;-87
2022/01/30 17:58:54;;;;;;;;;;;5.80;99.90;;;;;;6146189;23;19908;-87
2022/01/30 18:01:19;;;;;;;;;;;5.80;99.90;;;;;;6172162;23;19912;-87
2022/01/30 18:03:47;;;;;;;;;;;5.80;99.90;;;;;;6148566;23;19980;-86
2022/01/30 18:06:16;;;;;;;;;;;5.80;99.90;;;;;;6171309;23;19912;-87
2022/01/30 18:08:47;;;;;;;;;;;5.80;99.90;;;;;;6174086;23;19979;-87
2022/01/30 18:11:13;;;;;;;;;;;5.80;99.90;;;;;;6147251;23;19999;-87
2022/01/30 18:13:39;;;;;;;;;;;5.70;99.90;;;;;;6147142;23;19917;-86
2022/01/30 18:16:10;;;;;;;;;;;5.80;99.90;;;;;;6147188;23;19912;-87
2022/01/30 18:18:35;;;;;;;;;;;5.80;99.90;;;;;;6147439;23;19919;-87
2022/01/30 18:21:01;;;;;;;;;;;5.70;99.90;;;;;;6172110;23;19975;-87
2022/01/30 18:23:29;;;;;;;;;;;5.70;99.90;;;;;;6172704;23;20326;-86
2022/01/30 18:26:40;;;;;;;;;;;5.70;99.90;;;;;;6115214;23;19943;-88
2022/01/30 18:32:07;;;;;;;;;;;5.70;99.90;;;;;;6111115;23;19918;-89
2022/01/30 18:34:34;;;;;;;;;;;5.60;99.90;;;;;;6173593;23;20396;-86
2022/01/30 18:37:04;;;;;;;;;;;5.60;99.90;;;;;;6146113;23;19912;-86
2022/01/30 18:39:40;;;;;;;;;;;5.60;99.90;;;;;;6147754;23;19908;-84
2022/01/30 18:42:06;;;;;;;;;;;5.60;99.90;;;;;;6130196;23;19991;-85
2022/01/30 18:44:31;;;;;;;;;;;5.60;99.90;;;;;;6173188;23;19947;-85
2022/01/30 18:46:57;;;;;;;;;;;5.60;99.90;;;;;;6172777;23;19912;-85
2022/01/30 18:49:25;;;;;;;;;;;5.50;99.90;;;;;;6146788;23;20612;-85
2022/01/30 18:51:54;;;;;;;;;;;5.60;99.90;;;;;;6133077;23;19912;-85
2022/01/30 18:54:23;;;;;;;;;;;5.60;99.90;;;;;;6145384;23;19912;-86
2022/01/30 18:56:51;;;;;;;;;;;5.60;99.90;;;;;;6114711;23;19908;-87
2022/01/30 18:59:17;;;;;;;;;;;5.50;99.90;;;;;;6130678;23;20553;-87
2022/01/30 19:01:42;;;;;;;;;;;5.50;99.90;;;;;;6129956;23;19916;-87
2022/01/30 19:04:11;;;;;;;;;;;5.50;99.90;;;;;;6120675;23;19919;-88
2022/01/30 19:06:46;;;;;;;;;;;5.60;99.90;;;;;;6146084;23;19915;-87
2022/01/30 19:09:20;;;;;;;;;;;5.50;99.90;;;;;;6131858;23;19917;-88
2022/01/30 19:11:46;;;;;;;;;;;5.50;99.90;;;;;;6096084;23;19912;-86
2022/01/30 19:14:12;;;;;;;;;;;5.50;99.90;;;;;;6156505;23;19919;-87
2022/01/30 19:16:39;;;;;;;;;;;5.50;99.90;;;;;;6155790;23;19916;-88
2022/01/30 19:19:13;;;;;;;;;;;5.50;99.90;;;;;;6135354;23;19908;-87
2022/01/30 19:21:43;;;;;;;;;;;5.50;99.90;;;;;;6144708;23;19912;-87
2022/01/30 19:24:10;;;;;;;;;;;5.50;99.90;;;;;;6147124;23;21300;-87
2022/01/30 19:26:37;;;;;;;;;;;5.50;99.90;;;;;;6171813;23;19912;-87
2022/01/30 19:29:15;;;;;;;;;;;5.50;99.90;;;;;;6104941;23;19923;-89
2022/01/30 19:32:19;;;;;;;;;;;5.40;99.90;;;;;;6076917;23;19920;-90
2022/01/30 19:34:47;;;;;;;;;;;5.40;99.90;;;;;;6002170;23;20394;-87
2022/01/30 19:37:18;;;;;;;;;;;5.40;99.90;;;;;;6026551;23;19981;-88
2022/01/30 19:39:51;;;;;;;;;;;5.40;99.90;;;;;;6014651;23;19910;-87
2022/01/30 19:42:20;;;;;;;;;;;5.40;99.90;;;;;;6027626;23;19925;-87
2022/01/30 19:44:50;;;;;;;;;;;5.40;99.90;;;;;;6028987;23;20061;-87
2022/01/30 19:47:20;;;;;;;;;;;5.40;99.90;;;;;;6013886;23;19916;-89
2022/01/30 19:49:50;;;;;;;;;;;5.50;99.90;;;;;;6002393;23;19924;-89
2022/01/30 19:52:16;;;;;;;;;;;5.40;99.90;;;;;;6025538;23;20105;-89
2022/01/30 19:54:41;;;;;;;;;;;5.50;99.90;;;;;;6051444;23;19989;-89
2022/01/30 19:57:08;;;;;;;;;;;5.40;99.90;;;;;;5999172;23;19914;-89
2022/01/30 19:59:37;;;;;;;;;;;5.40;99.90;;;;;;6016490;23;19910;-90
2022/01/30 20:02:17;;;;;;;;;;;5.40;99.90;;;;;;6008557;23;19913;-87
2022/01/30 20:04:47;;;;;;;;;;;5.40;99.90;;;;;;6003039;23;19924;-88
2022/01/30 20:07:12;;;;;;;;;;;5.40;99.90;;;;;;5942209;23;19910;-90
2022/01/30 20:09:58;;;;;;;;;;;5.40;99.90;;;;;;6001892;23;20028;-90
2022/01/30 20:12:24;;;;;;;;;;;5.40;99.90;;;;;;6123358;23;20011;-88
2022/01/30 20:14:49;;;;;;;;;;;5.40;99.90;;;;;;6147494;23;19912;-88
2022/01/30 20:17:15;;;;;;;;;;;5.40;99.90;;;;;;6172587;23;20013;-88
2022/01/30 20:19:44;;;;;;;;;;;5.30;99.90;;;;;;6113616;23;20404;-88
2022/01/30 20:22:32;;;;;;;;;;;5.30;99.90;;;;;;6144529;23;20545;-88
2022/01/30 20:25:15;;;;;;;;;;;5.30;99.90;;;;;;6082177;23;20095;-88
2022/01/30 20:27:41;;;;;;;;;;;5.30;99.90;;;;;;6133342;23;19935;-87
2022/01/30 20:30:07;;;;;;;;;;;5.30;99.90;;;;;;6145680;23;19916;-88
2022/01/30 20:32:44;;;;;;;;;;;5.30;99.90;;;;;;6117530;23;19920;-87
2022/01/30 20:35:10;;;;;;;;;;;5.30;99.90;;;;;;6133920;23;20011;-87
2022/01/30 20:37:36;;;;;;;;;;;5.30;99.90;;;;;;6147099;23;19989;-85
2022/01/30 20:40:02;;;;;;;;;;;5.30;99.90;;;;;;6144326;23;19919;-88
2022/01/30 20:42:28;;;;;;;;;;;5.30;99.90;;;;;;6131370;23;19995;-87
2022/01/30 20:44:56;;;;;;;;;;;5.20;99.90;;;;;;6145155;23;19936;-87
2022/01/30 20:47:22;;;;;;;;;;;5.30;99.90;;;;;;6130518;23;19994;-87
2022/01/30 20:49:50;;;;;;;;;;;5.30;99.90;;;;;;6130671;23;19937;-87
2022/01/30 20:52:19;;;;;;;;;;;5.30;99.90;;;;;;6127692;23;19920;-87
2022/01/30 20:55:05;;;;;;;;;;;5.30;99.90;;;;;;6146236;23;20375;-86
2022/01/30 20:57:30;;;;;;;;;;;5.30;99.90;;;;;;6144795;23;19912;-87
2022/01/30 20:59:58;;;;;;;;;;;5.30;99.90;;;;;;6116348;23;20012;-88
2022/01/30 21:02:25;;;;;;;;;;;5.20;99.90;;;;;;6130879;23;20226;-87
2022/01/30 21:04:50;;;;;;;;;;;5.20;99.90;;;;;;6136751;23;19909;-87
2022/01/30 21:07:40;;;;;;;;;;;5.20;99.90;;;;;;6129626;23;19913;-87
2022/01/30 21:10:10;;;;;;;;;;;5.20;99.90;;;;;;6092854;23;19917;-88
2022/01/30 21:12:50;;;;;;;;;;;5.20;99.90;;;;;;6117612;23;19935;-87
2022/01/30 21:15:20;;;;;;;;;;;5.20;99.90;;;;;;6080371;23;19955;-87
2022/01/30 21:17:45;;;;;;;;;;;5.10;99.90;;;;;;6147655;23;19912;-87
2022/01/30 21:20:11;;;;;;;;;;;5.10;99.90;;;;;;6147376;23;20466;-87
2022/01/30 21:22:36;;;;;;;;;;;5.10;99.90;;;;;;6174025;23;19973;-87
2022/01/30 21:25:02;;;;;;;;;;;5.20;99.90;;;;;;6146649;23;19920;-87
2022/01/30 21:27:28;;;;;;;;;;;5.10;99.90;;;;;;6147525;23;19913;-86
2022/01/30 21:29:53;;;;;;;;;;;5.10;99.90;;;;;;6147029;23;19923;-86
2022/01/30 21:32:18;;;;;;;;;;;5.10;99.90;;;;;;6147404;23;20003;-86
2022/01/30 21:34:44;;;;;;;;;;;5.10;99.90;;;;;;6174232;23;20249;-87
2022/01/30 21:37:09;;;;;;;;;;;5.10;99.90;;;;;;6146482;23;19920;-87
2022/01/30 21:39:38;;;;;;;;;;;5.10;99.90;;;;;;6147733;23;20397;-87
2022/01/30 21:42:05;;;;;;;;;;;5.10;99.90;;;;;;6172669;23;20379;-87
2022/01/30 21:44:31;;;;;;;;;;;5.10;99.90;;;;;;6174164;23;19919;-86
2022/01/30 21:46:56;;;;;;;;;;;5.10;99.90;;;;;;6146868;23;19912;-86